Flight Track Log - Related Links

Times and Time Zones

All times are in EDT time to prevent confusion due to time zone crossing. See the EJA951 flight status page for this flight to view local times or setup timezone preferences in your user account.

Time Position Orientation Groundspeed Altitude Reporting Facility
EDT Latitude Longitude Course Direction KTS MPH feet Rate Location/Type
Wed 02:22:53 PM 33.6000 -111.9333 270° West 195 224 2,100  Level Phoenix TRACON
Wed 02:23:35 PM 33.6000 -111.9833 270° West 225 259 4,500 2,810 Climbing Phoenix TRACON
Wed 02:24:12 PM 33.6272 -112.0086 322° Northwest 245 282 5,800 2,000 Climbing Albuquerque Center
Wed 02:25:14 PM 33.6900 -111.9919 12° North 268 308 7,800 1,065 Climbing Albuquerque Center
Wed 02:26:16 PM 33.6917 -111.9011 89° East 281 323 8,000 1,548 Climbing Albuquerque Center
Wed 02:27:18 PM 33.6928 -111.7850 89° East 292 336 11,000 2,565 Climbing Albuquerque Center
Wed 02:28:20 PM 33.6928 -111.6833 90° East 305 351 13,300 2,195 Climbing Albuquerque Center
Wed 02:29:21 PM 33.6919 -111.5758 91° East 322 371 15,500 2,049 Climbing Albuquerque Center
Wed 02:30:23 PM 33.6964 -111.4656 87° East 335 386 17,500 1,790 Climbing Albuquerque Center
Wed 02:31:25 PM 33.7289 -111.3589 70° East 344 396 19,200 1,500 Climbing Albuquerque Center
Wed 02:32:27 PM 33.7722 -111.2197 69° East 373 429 20,600 1,306 Climbing Albuquerque Center
Wed 02:33:29 PM 33.8114 -111.0931 70° East 404 465 21,900 1,210 Climbing Albuquerque Center
Wed 02:34:31 PM 33.8522 -110.9592 70° East 420 483 23,100 1,258 Climbing Albuquerque Center
Wed 02:35:33 PM 33.8956 -110.8178 70° East 441 507 24,500 1,452 Climbing Albuquerque Center
Wed 02:36:35 PM 33.9403 -110.6744 69° East 454 522 26,100 1,512 Climbing Albuquerque Center
Wed 02:37:36 PM 33.9850 -110.5289 70° East 462 532 27,600 1,561 Climbing Albuquerque Center
Wed 02:38:38 PM 34.0297 -110.3758 71° East 470 541 29,300 1,742 Climbing Albuquerque Center
Wed 02:39:40 PM 34.0864 -110.1922 70° East 482 555 31,200 1,694 Climbing Albuquerque Center
Wed 02:40:42 PM 34.1339 -110.0319 70° East 489 563 32,800 1,500 Climbing Albuquerque Center
Wed 02:41:44 PM 34.1794 -109.8811 70° East 495 570 34,300 1,548 Climbing Albuquerque Center
Wed 02:42:46 PM 34.2319 -109.7017 70° East 504 580 36,000 1,500 Climbing Albuquerque Center
Wed 02:43:48 PM 34.2775 -109.5486 70° East 507 583 37,400 1,306 Climbing Albuquerque Center
Wed 02:44:50 PM 34.3522 -109.3839 61° Northeast 502 578 38,700 774 Climbing Albuquerque Center
Wed 02:45:52 PM 34.4183 -109.2406 61° Northeast 505 581 39,000 145 Climbing Albuquerque Center
Wed 02:46:54 PM 34.4992 -109.0656 61° Northeast 521 600 39,000  Level Albuquerque Center
Wed 02:47:56 PM 34.5706 -108.9081 61° Northeast 541 623 39,000  Level Albuquerque Center
Wed 02:48:58 PM 34.6544 -108.7217 61° Northeast 556 640 39,000  Level Albuquerque Center
Wed 02:50:00 PM 34.7267 -108.5603 61° Northeast 563 648 39,000  Level Albuquerque Center
Wed 02:51:02 PM 34.7989 -108.3992 61° Northeast 566 651 39,000  Level Albuquerque Center
Wed 02:52:04 PM 34.8822 -108.2111 62° Northeast 567 652 39,000  Level Albuquerque Center
Wed 02:53:06 PM 34.9575 -108.0422 61° Northeast 569 655 39,000  Level Albuquerque Center
Wed 02:54:08 PM 35.0319 -107.8739 62° Northeast 567 652 39,000  Level Albuquerque Center
Wed 02:55:10 PM 35.1072 -107.7056 61° Northeast 564 649 39,000  Level Albuquerque Center
Wed 02:56:12 PM 35.1917 -107.5125 62° Northeast 564 649 39,000  Level Albuquerque Center
Wed 02:57:14 PM 35.2628 -107.3492 62° Northeast 568 654 39,000  Level Albuquerque Center
Wed 02:58:16 PM 35.3425 -107.1608 63° Northeast 562 647 39,000  Level Albuquerque Center
Wed 02:59:18 PM 35.4211 -106.9753 62° Northeast 566 651 39,000  Level Albuquerque Center
Wed 03:00:20 PM 35.4950 -106.8031 62° Northeast 569 655 39,000  Level Albuquerque Center
Wed 03:01:22 PM 35.5692 -106.6303 62° Northeast 572 658 39,000  Level Albuquerque Center
Wed 03:02:24 PM 35.6475 -106.4403 63° Northeast 578 665 39,000 194 Level Albuquerque Center
Wed 03:03:26 PM 35.7206 -106.2675 62° Northeast 573 659 39,400 387 Climbing Albuquerque Center
Wed 03:04:28 PM 35.7872 -106.1189 61° Northeast 565 650 39,800 435 Climbing Albuquerque Center
Wed 03:05:30 PM 35.8600 -105.9489 62° Northeast 563 648 40,300 484 Climbing Albuquerque Center
Wed 03:06:32 PM 35.9369 -105.7497 64° Northeast 558 642 40,800 339 Climbing Albuquerque Center
Wed 03:07:34 PM 36.0067 -105.5803 63° Northeast 553 636 41,000 97 Climbing Albuquerque Center
Wed 03:08:36 PM 36.0822 -105.3975 63° Northeast 554 638 41,000  Level Albuquerque Center
Wed 03:09:38 PM 36.1544 -105.2222 63° Northeast 561 646 41,000  Level Albuquerque Center
Wed 03:10:40 PM 36.2247 -105.0472 63° Northeast 563 648 41,000  Level Albuquerque Center
Wed 03:11:42 PM 36.2953 -104.8697 64° Northeast 566 651 41,000  Level Albuquerque Center
Wed 03:12:44 PM 36.3672 -104.6917 63° Northeast 569 655 41,000  Level Albuquerque Center
Wed 03:13:46 PM 36.4503 -104.4839 64° Northeast 569 655 41,000  Level Albuquerque Center
Wed 03:14:48 PM 36.5214 -104.3053 64° Northeast 570 656 41,000  Level Albuquerque Center
Wed 03:15:50 PM 36.5919 -104.1267 64° Northeast 569 655 41,000  Level Albuquerque Center
Wed 03:16:52 PM 36.6669 -103.9358 64° Northeast 570 656 41,000  Level Albuquerque Center
Wed 03:17:54 PM 36.7336 -103.7653 64° Northeast 572 658 41,000  Level Albuquerque Center
Wed 03:18:56 PM 36.8097 -103.5672 64° Northeast 572 658 41,000  Level Albuquerque Center
Wed 03:19:58 PM 36.8753 -103.3961 64° Northeast 573 659 41,000  Level Albuquerque Center
Wed 03:21:00 PM 36.9519 -103.1967 64° Northeast 573 659 41,000  Level Albuquerque Center
Wed 03:22:02 PM 37.0172 -103.0253 64° Northeast 574 661 41,000  Level Albuquerque Center
Wed 03:23:04 PM 37.0931 -102.8247 65° Northeast 573 659 41,000  Level Albuquerque Center
Wed 03:24:06 PM 37.1589 -102.6522 64° Northeast 575 662 41,000  Level Albuquerque Center
Wed 03:25:09 PM 37.2342 -102.4511 65° Northeast 573 659 41,000  Level Albuquerque Center
Wed 03:26:11 PM 37.2978 -102.2786 65° Northeast 571 657 41,000  Level Albuquerque Center
Wed 03:27:13 PM 37.3650 -102.0933 65° Northeast 572 658 41,000  Level Albuquerque Center
Wed 03:28:15 PM 37.4383 -101.8906 65° Northeast 571 657 41,000  Level Albuquerque Center
Wed 03:29:44 PM 37.5344 -101.6267 65° Northeast 573 659 41,000  Level Kansas City Center
Wed 03:30:45 PM 37.5972 -101.4517 66° East 573 659 41,000  Level Kansas City Center
Wed 03:31:46 PM 37.6600 -101.2756 66° East 573 659 41,000  Level Kansas City Center
Wed 03:32:49 PM 37.7256 -101.0931 66° East 574 661 41,000  Level Kansas City Center
Wed 03:33:50 PM 37.7986 -100.8878 66° East 573 659 41,000  Level Kansas City Center
Wed 03:34:53 PM 37.8736 -100.6753 66° East 583 671 41,000  Level Kansas City Center
Wed 03:35:54 PM 37.9350 -100.4967 66° East 581 669 41,000  Level Kansas City Center
Wed 03:36:58 PM 37.9967 -100.3208 66° East 576 663 41,000  Level Kansas City Center
Wed 03:37:58 PM 38.0681 -100.1100 67° East 576 663 41,000  Level Kansas City Center
Wed 03:39:02 PM 38.1267 -99.9333 67° East 572 658 41,000  Level Kansas City Center
Wed 03:40:02 PM 38.1983 -99.7253 66° East 571 657 41,000  Level Kansas City Center
Wed 03:41:06 PM 38.2583 -99.5483 67° East 572 658 41,000  Level Kansas City Center
Wed 03:42:06 PM 38.3244 -99.3483 67° East 572 658 41,000  Level Kansas City Center
Wed 03:43:10 PM 38.3869 -99.1614 67° East 573 659 41,000  Level Kansas City Center
Wed 03:44:11 PM 38.4506 -98.9728 67° East 574 661 41,000  Level Kansas City Center
Wed 03:45:15 PM 38.5147 -98.7822 67° East 582 670 41,000  Level Kansas City Center
Wed 03:46:15 PM 38.5775 -98.5917 67° East 582 670 41,000  Level Kansas City Center
Wed 03:47:19 PM 38.6525 -98.3619 67° East 582 670 41,000  Level Kansas City Center
Wed 03:48:19 PM 38.7147 -98.1692 67° East 582 670 41,000  Level Kansas City Center
Wed 03:49:23 PM 38.7767 -97.9764 68° East 582 670 41,000  Level Kansas City Center
Wed 03:50:23 PM 38.8406 -97.7797 67° East 575 662 41,000  Level Kansas City Center
Wed 03:51:26 PM 38.8994 -97.5947 68° East 579 666 41,000  Level Kansas City Center
Wed 03:52:27 PM 38.9600 -97.3978 68° East 585 673 41,000  Level Kansas City Center
Wed 03:53:31 PM 39.0247 -97.1947 68° East 583 671 41,000  Level Kansas City Center
Wed 03:54:32 PM 39.0900 -96.9825 68° East 576 663 41,000  Level Kansas City Center
Wed 03:55:33 PM 39.1472 -96.7975 68° East 576 663 41,000  Level Kansas City Center
Wed 03:56:38 PM 39.2142 -96.5811 68° East 579 666 41,000  Level Kansas City Center
Wed 03:57:39 PM 39.2683 -96.3981 69° East 579 666 41,000  Level Kansas City Center
Wed 03:58:39 PM 39.3281 -96.2042 68° East 579 666 41,000  Level Kansas City Center
Wed 03:59:43 PM 39.3914 -95.9903 69° East 580 667 41,000  Level Kansas City Center
Wed 04:00:44 PM 39.4561 -95.7719 69° East 580 667 41,000  Level Kansas City Center
Wed 04:01:48 PM 39.5114 -95.5828 69° East 580 667 41,000  Level Kansas City Center
Wed 04:02:49 PM 39.5669 -95.3928 69° East 580 667 41,000  Level Kansas City Center
Wed 04:03:50 PM 39.6306 -95.1708 70° East 581 669 41,000  Level Kansas City Center
Wed 04:04:54 PM 39.6853 -94.9817 69° East 581 669 41,000  Level Kansas City Center
Wed 04:05:55 PM 39.7486 -94.7603 70° East 581 669 41,000  Level Kansas City Center
Wed 04:06:59 PM 39.8025 -94.5700 70° East 581 669 41,000  Level Kansas City Center
Wed 04:08:00 PM 39.8636 -94.3481 70° East 582 670 41,000  Level Kansas City Center
Wed 04:09:00 PM 39.9175 -94.1569 70° East 584 672 41,000  Level Kansas City Center
Wed 04:10:04 PM 39.9758 -93.9381 71° East 592 681 41,000  Level Kansas City Center
Wed 04:11:06 PM 40.0317 -93.7400 70° East 592 681 41,000  Level Kansas City Center
Wed 04:12:06 PM 40.0842 -93.5397 71° East 588 677 41,000  Level Kansas City Center
Wed 04:13:09 PM 40.1406 -93.3422 69° East 588 677 41,000  Level Kansas City Center
Wed 04:14:10 PM 40.1925 -93.1425 71° East 587 676 41,000  Level Kansas City Center
Wed 04:15:14 PM 40.2547 -92.9067 71° East 586 674 41,000  Level Kansas City Center
Wed 04:16:15 PM 40.3069 -92.7150 70° East 586 674 41,000  Level Kansas City Center
Wed 04:17:19 PM 40.3611 -92.4867 73° East 586 674 41,000  Level Kansas City Center
Wed 04:18:20 PM 40.4192 -92.2833 69° East 586 674 41,000  Level Kansas City Center
Wed 04:19:23 PM 40.4697 -92.0814 72° East 586 674 41,000  Level Kansas City Center
Wed 04:20:24 PM 40.5211 -91.8797 71° East 586 674 41,000  Level Kansas City Center
Wed 04:21:27 PM 40.5719 -91.6778 72° East 585 673 41,000  Level Kansas City Center
Wed 04:22:28 PM 40.6325 -91.4353 72° East 585 673 41,000  Level Kansas City Center
Wed 04:23:32 PM 40.6828 -91.2289 72° East 585 673 41,000  Level Kansas City Center
Wed 04:24:32 PM 40.7339 -91.0250 72° East 585 673 41,000  Level Kansas City Center
Wed 04:25:36 PM 40.7836 -90.8183 72° East 586 674 41,000  Level Kansas City Center
Wed 04:26:36 PM 40.8333 -90.6117 72° East 588 677 41,000  Level Kansas City Center
Wed 04:27:37 PM 40.8836 -90.4042 72° East 588 677 41,000  Level Kansas City Center
Wed 04:29:07 PM 40.9622 -90.0692 73° East 591 680 41,000  Level Chicago Center
Wed 04:30:09 PM 41.0117 -89.8578 73° East 591 680 41,000  Level Chicago Center
Wed 04:31:11 PM 41.0603 -89.6472 73° East 592 681 41,000  Level Chicago Center
Wed 04:32:13 PM 41.1075 -89.4364 73° East 592 681 41,000  Level Chicago Center
Wed 04:33:15 PM 41.1558 -89.2264 73° East 593 682 41,000  Level Chicago Center
Wed 04:34:17 PM 41.2028 -89.0169 73° East 592 681 41,000  Level Chicago Center
Wed 04:35:20 PM 41.2489 -88.8067 74° East 594 684 41,000  Level Chicago Center
Wed 04:36:22 PM 41.3050 -88.5564 73° East 590 679 41,000  Level Chicago Center
Wed 04:37:24 PM 41.3511 -88.3458 74° East 591 680 41,000  Level Chicago Center
Wed 04:38:26 PM 41.3961 -88.1369 74° East 589 678 41,000  Level Chicago Center
Wed 04:39:28 PM 41.4403 -87.9278 74° East 587 676 41,000  Level Chicago Center
Wed 04:40:30 PM 41.4856 -87.7081 75° East 589 678 41,000  Level Chicago Center
Wed 04:41:32 PM 41.5289 -87.4992 74° East 585 673 41,000  Level Chicago Center
Wed 04:42:34 PM 41.5772 -87.2686 74° East 580 667 41,000  Level Chicago Center
Wed 04:43:36 PM 41.6192 -87.0611 75° East 582 670 41,000  Level Chicago Center
Wed 04:44:38 PM 41.6636 -86.8522 74° East 584 672 41,000  Level Chicago Center
Wed 04:45:40 PM 41.7075 -86.6200 76° East 587 676 41,000  Level Chicago Center
Wed 04:46:43 PM 41.7506 -86.4097 75° East 587 676 41,000  Level Chicago Center
Wed 04:47:45 PM 41.7811 -86.1961 79° East 586 674 41,000  Level Chicago Center
Wed 04:48:47 PM 41.8028 -85.9786 82° East 587 676 41,000  Level Chicago Center
Wed 04:49:49 PM 41.8253 -85.7619 82° East 586 674 41,000  Level Chicago Center
Wed 04:50:51 PM 41.8472 -85.5414 82° East 588 677 41,000  Level Chicago Center
Wed 04:51:53 PM 41.8725 -85.2764 83° East 587 676 41,000  Level Chicago Center
Wed 04:52:55 PM 41.8958 -85.0556 82° East 591 680 41,000  Level Chicago Center
Wed 04:53:57 PM 41.9175 -84.8367 82° East 590 679 41,000  Level Chicago Center
Wed 04:54:59 PM 41.9394 -84.6203 82° East 586 674 41,000  Level Chicago Center
Wed 04:56:02 PM 41.9600 -84.4036 83° East 585 673 41,000  Level Chicago Center
Wed 04:57:03 PM 41.9819 -84.1817 82° East 582 670 41,000  Level Chicago Center
Wed 04:57:49 PM 41.9981 -84.0050 83° East 584 672 41,000  Level Cleveland Center
Wed 04:58:51 PM 42.0172 -83.7889 83° East 585 673 41,000  Level Cleveland Center
Wed 04:59:54 PM 42.0389 -83.5611 83° East 585 673 41,000  Level Cleveland Center
Wed 05:00:56 PM 42.0533 -83.3436 85° East 585 673 41,000  Level Cleveland Center
Wed 05:01:58 PM 42.0647 -83.1097 86° East 581 669 41,000  Level Cleveland Center
Wed 05:03:00 PM 42.0744 -82.9089 86° East 548 631 41,000  Level Cleveland Center
Wed 05:04:02 PM 42.0828 -82.7067 87° East 546 628 41,000  Level Cleveland Center
Wed 05:05:04 PM 42.0922 -82.5028 86° East 547 629 41,000  Level Cleveland Center
Wed 05:06:06 PM 42.0872 -82.2633 92° East 537 618 41,000  Level Cleveland Center
Wed 05:07:08 PM 42.0814 -82.0675 92° East 538 619 41,000  Level Cleveland Center
Wed 05:08:10 PM 42.0733 -81.8617 93° East 539 620 41,000  Level Cleveland Center
Wed 05:09:12 PM 42.0669 -81.6525 92° East 548 631 41,000  Level Cleveland Center
Wed 05:10:15 PM 42.0589 -81.4425 93° East 552 635 41,000  Level Cleveland Center
Wed 05:11:17 PM 42.0500 -81.2322 93° East 554 638 41,000  Level Cleveland Center
Wed 05:12:19 PM 42.0403 -80.9872 93° East 555 639 41,000  Level Cleveland Center
Wed 05:13:21 PM 42.0311 -80.7800 93° East 553 636 41,000  Level Cleveland Center
Wed 05:14:23 PM 42.0228 -80.5744 93° East 547 629 41,000  Level Cleveland Center
Wed 05:15:25 PM 42.0131 -80.3686 94° East 546 628 41,000  Level Cleveland Center
Wed 05:16:27 PM 42.0036 -80.1633 93° East 546 628 41,000  Level Cleveland Center
Wed 05:17:29 PM 41.9928 -79.9653 94° East 550 633 41,000  Level Cleveland Center
Wed 05:18:31 PM 41.9789 -79.7189 94° East 552 635 41,000  Level Cleveland Center
Wed 05:19:33 PM 41.9681 -79.5131 94° East 553 636 41,000  Level Cleveland Center
Wed 05:20:36 PM 41.9567 -79.3036 94° East 560 644 41,000  Level Cleveland Center
Wed 05:21:38 PM 41.9439 -79.0947 95° East 560 644 41,000  Level Cleveland Center
Wed 05:22:40 PM 41.9319 -78.8881 94° East 560 644 41,000  Level Cleveland Center
Wed 05:23:42 PM 41.9206 -78.6839 94° East 554 638 41,000  Level Cleveland Center
Wed 05:24:44 PM 41.9036 -78.4400 95° East 552 635 41,000 -581 Level Cleveland Center
Wed 05:25:46 PM 41.8903 -78.2389 95° East 546 628 39,800 -2,032 Descending Cleveland Center
Wed 05:26:48 PM 41.8764 -78.0283 95° East 559 643 36,800 -2,323 Descending Cleveland Center
Wed 05:27:50 PM 41.8522 -77.8133 99° East 560 644 35,000 -885 Descending New York Center
Wed 05:28:50 PM 41.8047 -77.6272 109° East 515 593 35,000  Level New York Center
Wed 05:29:50 PM 41.7550 -77.4386 109° East 527 606 35,000 -400 Level New York Center
Wed 05:30:50 PM 41.7033 -77.2444 110° East 539 620 34,200 -1,000 Descending New York Center
Wed 05:31:50 PM 41.6528 -77.0564 110° East 545 627 33,000 -1,450 Descending New York Center
Wed 05:32:50 PM 41.6058 -76.8828 110° East 550 633 31,300 -2,000 Descending New York Center
Wed 05:33:50 PM 41.5475 -76.6750 111° Southeast 544 626 29,000 -2,200 Descending New York Center
Wed 05:34:50 PM 41.4981 -76.4961 110° East 528 608 26,900 -1,800 Descending New York Center
Wed 05:35:50 PM 41.4572 -76.3431 110° East 512 589 25,400 -1,650 Descending New York Center
Wed 05:36:50 PM 41.4108 -76.1789 111° Southeast 491 565 23,600 -1,750 Descending New York Center
Wed 05:37:50 PM 41.3694 -76.0317 110° East 454 522 21,900 -1,700 Descending New York Center
Wed 05:38:50 PM 41.3297 -75.8906 111° Southeast 429 494 20,200 -1,500 Descending New York Center
Wed 05:39:50 PM 41.2900 -75.7467 110° East 416 479 18,900 -1,200 Descending New York Center
Wed 05:40:50 PM 41.2478 -75.6111 112° Southeast 411 473 17,800 -1,950 Descending New York Center
Wed 05:41:50 PM 41.1975 -75.4642 114° Southeast 398 458 15,000 -2,600 Descending New York Center
Wed 05:42:50 PM 41.1567 -75.3372 113° Southeast 381 438 12,600 -2,200 Descending New York Center
Wed 05:43:50 PM 41.1231 -75.2358 114° Southeast 356 410 10,600 -1,950 Descending New York Center
Wed 05:44:50 PM 41.0892 -75.1400 115° Southeast 306 352 8,700 -2,100 Descending New York Center
Wed 05:45:50 PM 41.0553 -75.0361 113° Southeast 279 321 6,400 -1,350 Descending New York Center
Wed 05:46:50 PM 41.0211 -74.9486 117° Southeast 269 310 6,000 -400 Descending New York Center
Wed 05:47:50 PM 41.0033 -74.8567 104° East 274 315 5,600 -850 Descending New York Center
Wed 05:48:50 PM 41.0364 -74.7486 68° East 279 321 4,300 -1,250 Descending New York Center
Wed 05:49:50 PM 41.0642 -74.6594 68° East 267 307 3,100 -650 Descending New York Center
Wed 05:50:50 PM 41.0833 -74.5892 70° East 216 249 3,000 -50 Descending New York Center
Wed 05:51:50 PM 41.1022 -74.5186 70° East 202 232 3,000  Level New York Center
Wed 05:52:50 PM 41.1231 -74.4481 69° East 207 238 3,000  Level New York Center
Wed 05:53:50 PM 41.1103 -74.3869 105° East 186 214 3,000  Level New York Center
Wed 05:54:46 PM 41.1000 -74.3333 104° East 154 177 3,000  Level New York TRACON
Wed 05:55:46 PM 41.0833 -74.2667 108° East 163 188 3,000  Level New York TRACON
Wed 05:56:46 PM 41.0667 -74.2167 114° Southeast 171 197 3,000 -450 Level New York TRACON
Wed 05:57:46 PM 41.0500 -74.1500 108° East 169 194 2,100 -500 Descending New York TRACON
Wed 05:58:46 PM 41.0333 -74.1000 114° Southeast 163 188 2,000 -50 Descending New York TRACON
Wed 05:59:46 PM 41.0000 -74.0667 143° Southeast 167 192 2,000  Level New York TRACON
Wed 06:00:46 PM 40.9667 -74.0500 159° South 134 154 2,000 -238 Level New York TRACON
Wed 06:01:52 PM 40.9167 -74.0500 180° South 120 138 1,500 -619 Descending New York TRACON
Wed 06:02:52 PM 40.8833 -74.0500 180° South 126 145 700 -800 Descending New York TRACON

Login

Don't have an account? Register now (free) for customized features, flight alerts, and more!